sensor_id;sensor_type;location;lat;lon;timestamp;temperature;humidity
3626;DHT22;1827;50.534;8.316;2023-06-14T00:01:43;12.20;99.90
3626;DHT22;1827;50.534;8.316;2023-06-14T00:04:11;12.10;99.90
3626;DHT22;1827;50.534;8.316;2023-06-14T00:06:36;12.10;99.90
3626;DHT22;1827;50.534;8.316;2023-06-14T00:09:03;12.10;99.90
3626;DHT22;1827;50.534;8.316;2023-06-14T00:11:33;12.00;99.90
3626;DHT22;1827;50.534;8.316;2023-06-14T00:14:00;12.10;99.90
3626;DHT22;1827;50.534;8.316;2023-06-14T00:16:25;12.10;99.90
3626;DHT22;1827;50.534;8.316;2023-06-14T00:18:51;12.00;99.90
3626;DHT22;1827;50.534;8.316;2023-06-14T00:21:19;12.00;99.90
3626;DHT22;1827;50.534;8.316;2023-06-14T00:23:47;11.90;99.90
3626;DHT22;1827;50.534;8.316;2023-06-14T00:26:14;11.90;99.90
3626;DHT22;1827;50.534;8.316;2023-06-14T00:28:43;11.90;99.90
3626;DHT22;1827;50.534;8.316;2023-06-14T00:31:10;11.80;1.00
3626;DHT22;1827;50.534;8.316;2023-06-14T00:33:36;11.80;99.90
3626;DHT22;1827;50.534;8.316;2023-06-14T00:36:02;11.80;99.90
3626;DHT22;1827;50.534;8.316;2023-06-14T00:38:28;11.50;99.90
3626;DHT22;1827;50.534;8.316;2023-06-14T00:40:53;11.60;99.90
3626;DHT22;1827;50.534;8.316;2023-06-14T00:43:19;11.50;1.00
3626;DHT22;1827;50.534;8.316;2023-06-14T00:45:44;11.50;1.00
3626;DHT22;1827;50.534;8.316;2023-06-14T00:48:10;11.50;1.00
3626;DHT22;1827;50.534;8.316;2023-06-14T00:50:36;11.50;1.00
3626;DHT22;1827;50.534;8.316;2023-06-14T00:53:03;11.50;1.00
3626;DHT22;1827;50.534;8.316;2023-06-14T00:55:29;11.50;99.90
3626;DHT22;1827;50.534;8.316;2023-06-14T00:57:55;11.50;99.90
3626;DHT22;1827;50.534;8.316;2023-06-14T01:00:21;11.40;99.90
3626;DHT22;1827;50.534;8.316;2023-06-14T01:02:47;11.30;99.90
3626;DHT22;1827;50.534;8.316;2023-06-14T01:05:12;11.30;99.90
3626;DHT22;1827;50.534;8.316;2023-06-14T01:13:07;11.30;99.90
3626;DHT22;1827;50.534;8.316;2023-06-14T01:15:34;11.30;99.90
3626;DHT22;1827;50.534;8.316;2023-06-14T01:18:01;10.90;99.90
3626;DHT22;1827;50.534;8.316;2023-06-14T01:20:30;10.80;99.90
3626;DHT22;1827;50.534;8.316;2023-06-14T01:22:56;10.70;99.90
3626;DHT22;1827;50.534;8.316;2023-06-14T01:25:23;10.80;99.90
3626;DHT22;1827;50.534;8.316;2023-06-14T01:27:53;10.90;99.90
3626;DHT22;1827;50.534;8.316;2023-06-14T01:30:21;10.80;99.90
3626;DHT22;1827;50.534;8.316;2023-06-14T01:32:48;10.80;99.90
3626;DHT22;1827;50.534;8.316;2023-06-14T01:35:15;10.90;99.90
3626;DHT22;1827;50.534;8.316;2023-06-14T01:37:41;10.80;99.90
3626;DHT22;1827;50.534;8.316;2023-06-14T01:40:08;10.80;99.90
3626;DHT22;1827;50.534;8.316;2023-06-14T01:42:34;10.80;99.90
3626;DHT22;1827;50.534;8.316;2023-06-14T01:45:02;10.80;99.90
3626;DHT22;1827;50.534;8.316;2023-06-14T01:47:29;10.80;99.90
3626;DHT22;1827;50.534;8.316;2023-06-14T01:49:55;10.80;99.90
3626;DHT22;1827;50.534;8.316;2023-06-14T01:52:21;10.80;99.90
3626;DHT22;1827;50.534;8.316;2023-06-14T01:54:47;10.80;99.90
3626;DHT22;1827;50.534;8.316;2023-06-14T01:57:15;10.70;99.90
3626;DHT22;1827;50.534;8.316;2023-06-14T01:59:41;10.60;99.90
3626;DHT22;1827;50.534;8.316;2023-06-14T02:02:07;10.70;99.90
3626;DHT22;1827;50.534;8.316;2023-06-14T02:04:33;10.70;99.90
3626;DHT22;1827;50.534;8.316;2023-06-14T02:07:12;10.60;99.90
3626;DHT22;1827;50.534;8.316;2023-06-14T02:09:41;10.60;99.90
3626;DHT22;1827;50.534;8.316;2023-06-14T02:12:07;10.60;99.90
3626;DHT22;1827;50.534;8.316;2023-06-14T02:14:36;10.60;99.90
3626;DHT22;1827;50.534;8.316;2023-06-14T02:17:03;10.60;99.90
3626;DHT22;1827;50.534;8.316;2023-06-14T02:19:29;10.60;99.90
3626;DHT22;1827;50.534;8.316;2023-06-14T02:21:56;10.50;99.90
3626;DHT22;1827;50.534;8.316;2023-06-14T02:24:21;10.50;99.90
3626;DHT22;1827;50.534;8.316;2023-06-14T02:26:48;10.50;99.90
3626;DHT22;1827;50.534;8.316;2023-06-14T02:29:15;10.50;99.90
3626;DHT22;1827;50.534;8.316;2023-06-14T02:31:41;10.40;99.90
3626;DHT22;1827;50.534;8.316;2023-06-14T02:34:07;10.50;99.90
3626;DHT22;1827;50.534;8.316;2023-06-14T02:36:36;10.50;99.90
3626;DHT22;1827;50.534;8.316;2023-06-14T02:39:07;10.60;99.90
3626;DHT22;1827;50.534;8.316;2023-06-14T02:41:34;10.50;99.90
3626;DHT22;1827;50.534;8.316;2023-06-14T02:44:01;10.50;99.90
3626;DHT22;1827;50.534;8.316;2023-06-14T02:46:28;10.40;99.90
3626;DHT22;1827;50.534;8.316;2023-06-14T02:48:54;10.30;99.90
3626;DHT22;1827;50.534;8.316;2023-06-14T02:51:19;10.30;99.90
3626;DHT22;1827;50.534;8.316;2023-06-14T02:53:45;10.30;99.90
3626;DHT22;1827;50.534;8.316;2023-06-14T02:56:10;10.50;99.90
3626;DHT22;1827;50.534;8.316;2023-06-14T02:58:37;10.60;99.90
3626;DHT22;1827;50.534;8.316;2023-06-14T03:01:06;10.60;99.90
3626;DHT22;1827;50.534;8.316;2023-06-14T03:03:34;10.50;99.90
3626;DHT22;1827;50.534;8.316;2023-06-14T03:05:59;10.50;99.90
3626;DHT22;1827;50.534;8.316;2023-06-14T03:08:31;10.40;99.90
3626;DHT22;1827;50.534;8.316;2023-06-14T03:11:05;10.30;99.90
3626;DHT22;1827;50.534;8.316;2023-06-14T03:13:32;10.30;99.90
3626;DHT22;1827;50.534;8.316;2023-06-14T03:15:58;10.30;99.90
3626;DHT22;1827;50.534;8.316;2023-06-14T03:18:26;10.30;99.90
3626;DHT22;1827;50.534;8.316;2023-06-14T03:20:52;10.30;1.00
3626;DHT22;1827;50.534;8.316;2023-06-14T03:23:19;10.30;1.00
3626;DHT22;1827;50.534;8.316;2023-06-14T03:25:46;10.20;1.00
3626;DHT22;1827;50.534;8.316;2023-06-14T03:28:12;10.20;1.00
3626;DHT22;1827;50.534;8.316;2023-06-14T03:30:38;10.20;1.00
3626;DHT22;1827;50.534;8.316;2023-06-14T03:33:04;10.20;1.00
3626;DHT22;1827;50.534;8.316;2023-06-14T03:35:32;10.30;1.00
3626;DHT22;1827;50.534;8.316;2023-06-14T03:37:57;10.30;1.00
3626;DHT22;1827;50.534;8.316;2023-06-14T03:40:23;10.30;1.00
3626;DHT22;1827;50.534;8.316;2023-06-14T03:42:58;10.30;1.00
3626;DHT22;1827;50.534;8.316;2023-06-14T03:45:24;10.40;99.90
3626;DHT22;1827;50.534;8.316;2023-06-14T03:47:49;10.40;99.90
3626;DHT22;1827;50.534;8.316;2023-06-14T03:50:16;10.40;99.90
3626;DHT22;1827;50.534;8.316;2023-06-14T03:52:43;10.40;99.90
3626;DHT22;1827;50.534;8.316;2023-06-14T03:55:10;10.40;99.90
3626;DHT22;1827;50.534;8.316;2023-06-14T03:57:41;10.50;99.90
3626;DHT22;1827;50.534;8.316;2023-06-14T04:00:10;10.50;99.90
3626;DHT22;1827;50.534;8.316;2023-06-14T04:02:39;10.40;99.90
3626;DHT22;1827;50.534;8.316;2023-06-14T04:05:05;10.40;1.00
3626;DHT22;1827;50.534;8.316;2023-06-14T04:07:35;10.40;1.00
3626;DHT22;1827;50.534;8.316;2023-06-14T04:10:08;10.40;1.00
3626;DHT22;1827;50.534;8.316;2023-06-14T04:12:38;10.50;99.90
3626;DHT22;1827;50.534;8.316;2023-06-14T04:15:04;10.60;99.90
3626;DHT22;1827;50.534;8.316;2023-06-14T04:17:31;10.70;99.90
3626;DHT22;1827;50.534;8.316;2023-06-14T04:19:58;10.80;99.90
3626;DHT22;1827;50.534;8.316;2023-06-14T04:22:28;10.90;99.90
3626;DHT22;1827;50.534;8.316;2023-06-14T04:24:56;10.90;99.90
3626;DHT22;1827;50.534;8.316;2023-06-14T04:27:22;11.00;99.90
3626;DHT22;1827;50.534;8.316;2023-06-14T04:29:54;11.10;99.90
3626;DHT22;1827;50.534;8.316;2023-06-14T04:32:29;11.10;99.90
3626;DHT22;1827;50.534;8.316;2023-06-14T04:34:59;11.20;99.90
3626;DHT22;1827;50.534;8.316;2023-06-14T04:37:27;11.20;99.90
3626;DHT22;1827;50.534;8.316;2023-06-14T04:39:55;11.30;99.90
3626;DHT22;1827;50.534;8.316;2023-06-14T04:42:22;11.40;99.90
3626;DHT22;1827;50.534;8.316;2023-06-14T04:44:51;11.50;99.90
3626;DHT22;1827;50.534;8.316;2023-06-14T04:47:20;11.60;99.90
3626;DHT22;1827;50.534;8.316;2023-06-14T04:49:46;11.70;99.90
3626;DHT22;1827;50.534;8.316;2023-06-14T04:52:12;11.80;99.90
3626;DHT22;1827;50.534;8.316;2023-06-14T04:54:40;11.90;99.90
3626;DHT22;1827;50.534;8.316;2023-06-14T04:57:11;12.10;99.90
3626;DHT22;1827;50.534;8.316;2023-06-14T04:59:44;12.20;99.90
3626;DHT22;1827;50.534;8.316;2023-06-14T05:02:10;12.30;99.90
3626;DHT22;1827;50.534;8.316;2023-06-14T05:04:37;12.40;99.90
3626;DHT22;1827;50.534;8.316;2023-06-14T05:07:08;12.60;99.90
3626;DHT22;1827;50.534;8.316;2023-06-14T05:09:35;12.70;99.90
3626;DHT22;1827;50.534;8.316;2023-06-14T05:12:01;13.10;99.90
3626;DHT22;1827;50.534;8.316;2023-06-14T05:14:26;13.20;99.90
3626;DHT22;1827;50.534;8.316;2023-06-14T05:16:52;13.30;99.90
3626;DHT22;1827;50.534;8.316;2023-06-14T05:19:19;13.50;99.90
3626;DHT22;1827;50.534;8.316;2023-06-14T05:21:47;13.70;99.90
3626;DHT22;1827;50.534;8.316;2023-06-14T05:24:13;14.00;99.90
3626;DHT22;1827;50.534;8.316;2023-06-14T05:26:38;14.10;99.90
3626;DHT22;1827;50.534;8.316;2023-06-14T05:29:04;14.30;99.90
3626;DHT22;1827;50.534;8.316;2023-06-14T05:31:30;14.40;99.90
3626;DHT22;1827;50.534;8.316;2023-06-14T05:33:56;14.50;99.90
3626;DHT22;1827;50.534;8.316;2023-06-14T05:36:22;14.70;99.90
3626;DHT22;1827;50.534;8.316;2023-06-14T05:38:47;14.90;99.90
3626;DHT22;1827;50.534;8.316;2023-06-14T05:41:13;15.20;99.90
3626;DHT22;1827;50.534;8.316;2023-06-14T05:43:39;15.40;99.90
3626;DHT22;1827;50.534;8.316;2023-06-14T05:46:04;15.60;99.90
3626;DHT22;1827;50.534;8.316;2023-06-14T05:48:30;15.80;99.90
3626;DHT22;1827;50.534;8.316;2023-06-14T05:50:55;16.00;99.90
3626;DHT22;1827;50.534;8.316;2023-06-14T05:53:21;16.30;99.90
3626;DHT22;1827;50.534;8.316;2023-06-14T05:55:47;16.30;99.90
3626;DHT22;1827;50.534;8.316;2023-06-14T05:58:13;16.60;99.90
3626;DHT22;1827;50.534;8.316;2023-06-14T06:00:39;16.70;99.90
3626;DHT22;1827;50.534;8.316;2023-06-14T06:03:04;16.60;99.90
3626;DHT22;1827;50.534;8.316;2023-06-14T06:05:33;16.70;99.90
3626;DHT22;1827;50.534;8.316;2023-06-14T06:07:59;16.70;99.90
3626;DHT22;1827;50.534;8.316;2023-06-14T06:10:26;17.10;99.90
3626;DHT22;1827;50.534;8.316;2023-06-14T06:12:52;17.00;99.90
3626;DHT22;1827;50.534;8.316;2023-06-14T06:15:19;16.90;99.90
3626;DHT22;1827;50.534;8.316;2023-06-14T06:17:45;17.20;99.90
3626;DHT22;1827;50.534;8.316;2023-06-14T06:20:11;17.10;99.90
3626;DHT22;1827;50.534;8.316;2023-06-14T06:22:37;17.20;99.90
3626;DHT22;1827;50.534;8.316;2023-06-14T06:25:02;17.40;99.90
3626;DHT22;1827;50.534;8.316;2023-06-14T06:27:28;17.40;99.90
3626;DHT22;1827;50.534;8.316;2023-06-14T06:29:54;17.40;99.90
3626;DHT22;1827;50.534;8.316;2023-06-14T06:32:19;17.60;99.90
3626;DHT22;1827;50.534;8.316;2023-06-14T06:34:46;17.80;99.90
3626;DHT22;1827;50.534;8.316;2023-06-14T06:37:13;17.40;99.90
3626;DHT22;1827;50.534;8.316;2023-06-14T06:39:38;17.60;99.90
3626;DHT22;1827;50.534;8.316;2023-06-14T06:42:04;17.80;99.90
3626;DHT22;1827;50.534;8.316;2023-06-14T06:44:36;18.00;99.90
3626;DHT22;1827;50.534;8.316;2023-06-14T06:47:02;18.30;99.90
3626;DHT22;1827;50.534;8.316;2023-06-14T06:49:33;18.00;99.90
3626;DHT22;1827;50.534;8.316;2023-06-14T06:51:59;18.00;99.90
3626;DHT22;1827;50.534;8.316;2023-06-14T06:54:27;18.20;99.90
3626;DHT22;1827;50.534;8.316;2023-06-14T06:56:53;18.80;99.90
3626;DHT22;1827;50.534;8.316;2023-06-14T06:59:20;18.50;99.90
3626;DHT22;1827;50.534;8.316;2023-06-14T07:01:46;18.90;99.90
3626;DHT22;1827;50.534;8.316;2023-06-14T07:04:12;18.70;99.90
3626;DHT22;1827;50.534;8.316;2023-06-14T07:06:38;19.00;99.90
3626;DHT22;1827;50.534;8.316;2023-06-14T07:09:03;18.50;99.90
3626;DHT22;1827;50.534;8.316;2023-06-14T07:11:30;18.30;99.90
3626;DHT22;1827;50.534;8.316;2023-06-14T07:13:59;18.40;99.90
3626;DHT22;1827;50.534;8.316;2023-06-14T07:16:25;18.70;99.90
3626;DHT22;1827;50.534;8.316;2023-06-14T07:18:52;18.40;99.90
3626;DHT22;1827;50.534;8.316;2023-06-14T07:21:18;18.60;99.90
3626;DHT22;1827;50.534;8.316;2023-06-14T07:23:44;18.90;99.90
3626;DHT22;1827;50.534;8.316;2023-06-14T07:26:10;19.40;99.90
3626;DHT22;1827;50.534;8.316;2023-06-14T07:28:36;19.10;99.90
3626;DHT22;1827;50.534;8.316;2023-06-14T07:31:02;19.40;99.90
3626;DHT22;1827;50.534;8.316;2023-06-14T07:33:29;19.60;99.90
3626;DHT22;1827;50.534;8.316;2023-06-14T07:35:54;19.10;99.90
3626;DHT22;1827;50.534;8.316;2023-06-14T07:38:20;19.40;99.90
3626;DHT22;1827;50.534;8.316;2023-06-14T07:40:46;19.50;99.90
3626;DHT22;1827;50.534;8.316;2023-06-14T07:43:12;19.10;99.90
3626;DHT22;1827;50.534;8.316;2023-06-14T07:45:37;19.60;99.90
3626;DHT22;1827;50.534;8.316;2023-06-14T07:48:05;20.00;99.90
3626;DHT22;1827;50.534;8.316;2023-06-14T07:50:31;19.60;99.90
3626;DHT22;1827;50.534;8.316;2023-06-14T07:52:58;19.40;99.90
3626;DHT22;1827;50.534;8.316;2023-06-14T07:55:23;19.90;99.90
3626;DHT22;1827;50.534;8.316;2023-06-14T07:57:50;19.80;99.90
3626;DHT22;1827;50.534;8.316;2023-06-14T08:00:16;19.50;99.90
3626;DHT22;1827;50.534;8.316;2023-06-14T08:02:43;19.30;99.90
3626;DHT22;1827;50.534;8.316;2023-06-14T08:05:09;19.70;99.90
3626;DHT22;1827;50.534;8.316;2023-06-14T08:07:36;19.70;99.90
3626;DHT22;1827;50.534;8.316;2023-06-14T08:10:02;19.70;99.90
3626;DHT22;1827;50.534;8.316;2023-06-14T08:12:28;19.50;99.90
3626;DHT22;1827;50.534;8.316;2023-06-14T08:14:53;19.70;99.90
3626;DHT22;1827;50.534;8.316;2023-06-14T08:17:19;19.50;99.90
3626;DHT22;1827;50.534;8.316;2023-06-14T08:19:46;19.20;99.90
3626;DHT22;1827;50.534;8.316;2023-06-14T08:22:13;18.90;99.90
3626;DHT22;1827;50.534;8.316;2023-06-14T08:24:39;19.30;99.90
3626;DHT22;1827;50.534;8.316;2023-06-14T08:27:06;19.70;99.90
3626;DHT22;1827;50.534;8.316;2023-06-14T08:29:33;19.60;99.90
3626;DHT22;1827;50.534;8.316;2023-06-14T08:32:01;19.10;99.90
3626;DHT22;1827;50.534;8.316;2023-06-14T08:34:28;19.50;99.90
3626;DHT22;1827;50.534;8.316;2023-06-14T08:36:53;19.40;99.90
3626;DHT22;1827;50.534;8.316;2023-06-14T08:39:19;19.10;99.90
3626;DHT22;1827;50.534;8.316;2023-06-14T08:41:46;19.90;99.90
3626;DHT22;1827;50.534;8.316;2023-06-14T08:44:18;19.50;99.90
3626;DHT22;1827;50.534;8.316;2023-06-14T08:46:43;19.70;99.90
3626;DHT22;1827;50.534;8.316;2023-06-14T08:49:13;19.70;99.90
3626;DHT22;1827;50.534;8.316;2023-06-14T08:51:41;19.60;99.90
3626;DHT22;1827;50.534;8.316;2023-06-14T08:54:08;19.60;99.90
3626;DHT22;1827;50.534;8.316;2023-06-14T08:56:35;19.80;99.90
3626;DHT22;1827;50.534;8.316;2023-06-14T08:59:03;20.20;99.90
3626;DHT22;1827;50.534;8.316;2023-06-14T09:01:36;19.90;99.90
3626;DHT22;1827;50.534;8.316;2023-06-14T09:04:05;19.60;99.90
3626;DHT22;1827;50.534;8.316;2023-06-14T09:06:33;20.50;99.90
3626;DHT22;1827;50.534;8.316;2023-06-14T09:09:00;20.70;99.90
3626;DHT22;1827;50.534;8.316;2023-06-14T09:11:27;20.30;99.90
3626;DHT22;1827;50.534;8.316;2023-06-14T09:13:53;20.10;99.90
3626;DHT22;1827;50.534;8.316;2023-06-14T09:16:18;20.30;99.90
3626;DHT22;1827;50.534;8.316;2023-06-14T09:18:46;20.90;99.90
3626;DHT22;1827;50.534;8.316;2023-06-14T09:21:16;20.60;99.90
3626;DHT22;1827;50.534;8.316;2023-06-14T09:23:46;20.90;99.90
3626;DHT22;1827;50.534;8.316;2023-06-14T09:26:13;19.70;99.90
3626;DHT22;1827;50.534;8.316;2023-06-14T09:28:43;20.80;99.90
3626;DHT22;1827;50.534;8.316;2023-06-14T09:31:12;21.80;99.90
3626;DHT22;1827;50.534;8.316;2023-06-14T09:33:49;21.60;99.90
3626;DHT22;1827;50.534;8.316;2023-06-14T09:36:23;20.90;99.90
3626;DHT22;1827;50.534;8.316;2023-06-14T09:38:55;20.90;99.90
3626;DHT22;1827;50.534;8.316;2023-06-14T09:41:34;20.00;99.90
3626;DHT22;1827;50.534;8.316;2023-06-14T09:44:00;20.60;99.90
3626;DHT22;1827;50.534;8.316;2023-06-14T09:46:29;21.10;99.90
3626;DHT22;1827;50.534;8.316;2023-06-14T09:48:57;20.50;99.90
3626;DHT22;1827;50.534;8.316;2023-06-14T09:51:23;19.90;99.90
3626;DHT22;1827;50.534;8.316;2023-06-14T09:53:50;20.50;99.90
3626;DHT22;1827;50.534;8.316;2023-06-14T09:56:17;21.30;99.90
3626;DHT22;1827;50.534;8.316;2023-06-14T09:58:48;22.00;99.90
3626;DHT22;1827;50.534;8.316;2023-06-14T10:01:16;20.70;99.90
3626;DHT22;1827;50.534;8.316;2023-06-14T10:03:42;20.30;99.90
3626;DHT22;1827;50.534;8.316;2023-06-14T10:06:10;21.50;99.90
3626;DHT22;1827;50.534;8.316;2023-06-14T10:08:37;22.40;99.90
3626;DHT22;1827;50.534;8.316;2023-06-14T10:11:07;22.30;99.90
3626;DHT22;1827;50.534;8.316;2023-06-14T10:13:33;22.60;99.90
3626;DHT22;1827;50.534;8.316;2023-06-14T10:16:10;23.00;99.90
3626;DHT22;1827;50.534;8.316;2023-06-14T10:18:45;22.50;99.90
3626;DHT22;1827;50.534;8.316;2023-06-14T10:21:24;22.20;99.90
3626;DHT22;1827;50.534;8.316;2023-06-14T10:23:52;20.60;99.90
3626;DHT22;1827;50.534;8.316;2023-06-14T10:26:19;19.70;99.90
3626;DHT22;1827;50.534;8.316;2023-06-14T10:28:58;19.80;99.90
3626;DHT22;1827;50.534;8.316;2023-06-14T10:31:41;20.30;99.90
3626;DHT22;1827;50.534;8.316;2023-06-14T10:34:08;21.40;99.90
3626;DHT22;1827;50.534;8.316;2023-06-14T10:36:38;20.80;99.90
3626;DHT22;1827;50.534;8.316;2023-06-14T10:39:07;20.30;99.90
3626;DHT22;1827;50.534;8.316;2023-06-14T10:41:39;20.50;99.90
3626;DHT22;1827;50.534;8.316;2023-06-14T10:46:46;21.70;99.90
3626;DHT22;1827;50.534;8.316;2023-06-14T10:49:20;21.90;99.90
3626;DHT22;1827;50.534;8.316;2023-06-14T10:51:50;22.30;99.90
3626;DHT22;1827;50.534;8.316;2023-06-14T10:54:20;21.20;99.90
3626;DHT22;1827;50.534;8.316;2023-06-14T10:56:47;20.60;99.90
3626;DHT22;1827;50.534;8.316;2023-06-14T10:59:14;20.80;99.90
3626;DHT22;1827;50.534;8.316;2023-06-14T11:04:28;20.70;99.90
3626;DHT22;1827;50.534;8.316;2023-06-14T11:07:05;21.10;99.90
3626;DHT22;1827;50.534;8.316;2023-06-14T11:09:52;21.70;99.90
3626;DHT22;1827;50.534;8.316;2023-06-14T11:12:25;22.10;99.90
3626;DHT22;1827;50.534;8.316;2023-06-14T11:14:56;22.20;99.90
3626;DHT22;1827;50.534;8.316;2023-06-14T11:17:22;22.10;99.90
3626;DHT22;1827;50.534;8.316;2023-06-14T11:20:06;21.80;99.90
3626;DHT22;1827;50.534;8.316;2023-06-14T11:22:39;21.00;99.90
3626;DHT22;1827;50.534;8.316;2023-06-14T11:25:08;20.50;99.90
3626;DHT22;1827;50.534;8.316;2023-06-14T11:27:33;21.60;99.90
3626;DHT22;1827;50.534;8.316;2023-06-14T11:29:59;22.80;99.90
3626;DHT22;1827;50.534;8.316;2023-06-14T11:32:25;23.40;99.90
3626;DHT22;1827;50.534;8.316;2023-06-14T11:34:54;22.10;99.90
3626;DHT22;1827;50.534;8.316;2023-06-14T11:37:20;22.20;99.90
3626;DHT22;1827;50.534;8.316;2023-06-14T11:39:46;21.90;99.90
3626;DHT22;1827;50.534;8.316;2023-06-14T11:42:16;21.60;99.90
3626;DHT22;1827;50.534;8.316;2023-06-14T11:44:46;21.30;99.90
3626;DHT22;1827;50.534;8.316;2023-06-14T11:47:13;22.20;99.90
3626;DHT22;1827;50.534;8.316;2023-06-14T11:49:39;23.30;99.90
3626;DHT22;1827;50.534;8.316;2023-06-14T11:52:05;22.00;99.90
3626;DHT22;1827;50.534;8.316;2023-06-14T11:54:31;22.80;99.90
3626;DHT22;1827;50.534;8.316;2023-06-14T11:56:57;24.00;99.90
3626;DHT22;1827;50.534;8.316;2023-06-14T11:59:23;23.60;99.90
3626;DHT22;1827;50.534;8.316;2023-06-14T12:01:49;23.60;99.90
3626;DHT22;1827;50.534;8.316;2023-06-14T12:04:22;23.50;99.90
3626;DHT22;1827;50.534;8.316;2023-06-14T12:06:48;22.30;99.90
3626;DHT22;1827;50.534;8.316;2023-06-14T12:09:15;22.60;99.90
3626;DHT22;1827;50.534;8.316;2023-06-14T12:11:44;22.10;99.90
3626;DHT22;1827;50.534;8.316;2023-06-14T12:14:10;21.70;99.90
3626;DHT22;1827;50.534;8.316;2023-06-14T12:16:37;21.80;99.90
3626;DHT22;1827;50.534;8.316;2023-06-14T12:19:25;22.30;99.90
3626;DHT22;1827;50.534;8.316;2023-06-14T12:21:54;22.20;99.90
3626;DHT22;1827;50.534;8.316;2023-06-14T12:24:20;22.40;99.90
3626;DHT22;1827;50.534;8.316;2023-06-14T12:26:45;22.10;99.90
3626;DHT22;1827;50.534;8.316;2023-06-14T12:29:12;22.50;99.90
3626;DHT22;1827;50.534;8.316;2023-06-14T12:31:37;22.60;99.90
3626;DHT22;1827;50.534;8.316;2023-06-14T12:34:03;22.50;99.90
3626;DHT22;1827;50.534;8.316;2023-06-14T12:36:29;21.60;99.90
3626;DHT22;1827;50.534;8.316;2023-06-14T12:38:55;22.10;99.90
3626;DHT22;1827;50.534;8.316;2023-06-14T12:41:21;21.70;99.90
3626;DHT22;1827;50.534;8.316;2023-06-14T12:43:48;21.10;99.90
3626;DHT22;1827;50.534;8.316;2023-06-14T12:46:14;21.10;99.90
3626;DHT22;1827;50.534;8.316;2023-06-14T12:48:40;21.70;99.90
3626;DHT22;1827;50.534;8.316;2023-06-14T12:51:05;22.90;99.90
3626;DHT22;1827;50.534;8.316;2023-06-14T12:53:31;23.80;99.90
3626;DHT22;1827;50.534;8.316;2023-06-14T12:55:58;23.60;99.90
3626;DHT22;1827;50.534;8.316;2023-06-14T12:58:24;22.90;99.90
3626;DHT22;1827;50.534;8.316;2023-06-14T13:00:50;22.70;99.90
3626;DHT22;1827;50.534;8.316;2023-06-14T13:03:16;22.60;99.90
3626;DHT22;1827;50.534;8.316;2023-06-14T13:05:41;22.10;99.90
3626;DHT22;1827;50.534;8.316;2023-06-14T13:08:09;22.10;99.90
3626;DHT22;1827;50.534;8.316;2023-06-14T13:10:37;23.30;99.90
3626;DHT22;1827;50.534;8.316;2023-06-14T13:13:04;23.10;99.90
3626;DHT22;1827;50.534;8.316;2023-06-14T13:15:32;23.20;99.90
3626;DHT22;1827;50.534;8.316;2023-06-14T13:17:59;22.60;99.90
3626;DHT22;1827;50.534;8.316;2023-06-14T13:20:27;22.80;99.90
3626;DHT22;1827;50.534;8.316;2023-06-14T13:22:52;23.90;99.90
3626;DHT22;1827;50.534;8.316;2023-06-14T13:25:19;25.00;99.90
3626;DHT22;1827;50.534;8.316;2023-06-14T13:27:46;24.50;99.90
3626;DHT22;1827;50.534;8.316;2023-06-14T13:30:12;23.80;99.90
3626;DHT22;1827;50.534;8.316;2023-06-14T13:32:37;22.40;99.90
3626;DHT22;1827;50.534;8.316;2023-06-14T13:35:03;22.60;99.90
3626;DHT22;1827;50.534;8.316;2023-06-14T13:37:29;22.80;99.90
3626;DHT22;1827;50.534;8.316;2023-06-14T13:39:55;23.00;99.90
3626;DHT22;1827;50.534;8.316;2023-06-14T13:42:20;23.00;99.90
3626;DHT22;1827;50.534;8.316;2023-06-14T13:44:46;23.30;99.90
3626;DHT22;1827;50.534;8.316;2023-06-14T13:47:11;23.70;99.90
3626;DHT22;1827;50.534;8.316;2023-06-14T13:49:37;22.90;99.90
3626;DHT22;1827;50.534;8.316;2023-06-14T13:52:03;24.40;99.90
3626;DHT22;1827;50.534;8.316;2023-06-14T13:54:28;24.70;99.90
3626;DHT22;1827;50.534;8.316;2023-06-14T13:56:54;24.70;99.90
3626;DHT22;1827;50.534;8.316;2023-06-14T13:59:20;23.80;99.90
3626;DHT22;1827;50.534;8.316;2023-06-14T14:01:46;23.80;99.90
3626;DHT22;1827;50.534;8.316;2023-06-14T14:04:12;23.70;99.90
3626;DHT22;1827;50.534;8.316;2023-06-14T14:06:38;24.10;99.90
3626;DHT22;1827;50.534;8.316;2023-06-14T14:09:03;24.50;99.90
3626;DHT22;1827;50.534;8.316;2023-06-14T14:11:29;23.10;99.90
3626;DHT22;1827;50.534;8.316;2023-06-14T14:13:57;22.30;99.90
3626;DHT22;1827;50.534;8.316;2023-06-14T14:16:23;22.50;99.90
3626;DHT22;1827;50.534;8.316;2023-06-14T14:18:49;23.30;99.90
3626;DHT22;1827;50.534;8.316;2023-06-14T14:21:14;23.30;99.90
3626;DHT22;1827;50.534;8.316;2023-06-14T14:23:41;23.90;99.90
3626;DHT22;1827;50.534;8.316;2023-06-14T14:26:07;23.90;99.90
3626;DHT22;1827;50.534;8.316;2023-06-14T14:28:32;23.50;99.90
3626;DHT22;1827;50.534;8.316;2023-06-14T14:30:58;24.00;99.90
3626;DHT22;1827;50.534;8.316;2023-06-14T14:33:25;23.70;99.90
3626;DHT22;1827;50.534;8.316;2023-06-14T14:35:50;23.10;99.90
3626;DHT22;1827;50.534;8.316;2023-06-14T14:38:16;22.40;99.90
3626;DHT22;1827;50.534;8.316;2023-06-14T14:40:42;22.90;99.90
3626;DHT22;1827;50.534;8.316;2023-06-14T14:43:07;23.60;99.90
3626;DHT22;1827;50.534;8.316;2023-06-14T14:45:33;24.30;99.90
3626;DHT22;1827;50.534;8.316;2023-06-14T14:48:00;24.70;99.90
3626;DHT22;1827;50.534;8.316;2023-06-14T14:50:26;24.50;99.90
3626;DHT22;1827;50.534;8.316;2023-06-14T14:52:51;23.20;99.90
3626;DHT22;1827;50.534;8.316;2023-06-14T14:55:17;23.10;99.90
3626;DHT22;1827;50.534;8.316;2023-06-14T14:57:43;22.50;99.90
3626;DHT22;1827;50.534;8.316;2023-06-14T15:00:09;22.10;99.90
3626;DHT22;1827;50.534;8.316;2023-06-14T15:02:34;21.90;99.90
3626;DHT22;1827;50.534;8.316;2023-06-14T15:05:00;21.80;99.90
3626;DHT22;1827;50.534;8.316;2023-06-14T15:07:27;21.90;99.90
3626;DHT22;1827;50.534;8.316;2023-06-14T15:09:53;21.90;99.90
3626;DHT22;1827;50.534;8.316;2023-06-14T15:12:18;22.00;99.90
3626;DHT22;1827;50.534;8.316;2023-06-14T15:14:45;21.80;99.90
3626;DHT22;1827;50.534;8.316;2023-06-14T15:17:11;21.90;99.90
3626;DHT22;1827;50.534;8.316;2023-06-14T15:19:36;22.00;99.90
3626;DHT22;1827;50.534;8.316;2023-06-14T15:22:02;22.40;99.90
3626;DHT22;1827;50.534;8.316;2023-06-14T15:24:27;23.60;99.90
3626;DHT22;1827;50.534;8.316;2023-06-14T15:26:53;23.60;99.90
3626;DHT22;1827;50.534;8.316;2023-06-14T15:29:19;23.70;99.90
3626;DHT22;1827;50.534;8.316;2023-06-14T15:31:44;24.10;99.90
3626;DHT22;1827;50.534;8.316;2023-06-14T15:34:10;24.90;99.90
3626;DHT22;1827;50.534;8.316;2023-06-14T15:36:35;24.90;99.90
3626;DHT22;1827;50.534;8.316;2023-06-14T15:39:01;24.60;99.90
3626;DHT22;1827;50.534;8.316;2023-06-14T15:41:27;24.70;99.90
3626;DHT22;1827;50.534;8.316;2023-06-14T15:43:52;23.80;99.90
3626;DHT22;1827;50.534;8.316;2023-06-14T15:46:19;23.80;99.90
3626;DHT22;1827;50.534;8.316;2023-06-14T15:48:46;23.60;99.90
3626;DHT22;1827;50.534;8.316;2023-06-14T15:51:12;24.20;99.90
3626;DHT22;1827;50.534;8.316;2023-06-14T15:53:37;24.70;99.90
3626;DHT22;1827;50.534;8.316;2023-06-14T15:56:03;24.60;99.90
3626;DHT22;1827;50.534;8.316;2023-06-14T15:58:28;24.80;99.90
3626;DHT22;1827;50.534;8.316;2023-06-14T16:00:54;23.40;99.90
3626;DHT22;1827;50.534;8.316;2023-06-14T16:03:20;23.30;99.90
3626;DHT22;1827;50.534;8.316;2023-06-14T16:05:45;23.60;99.90
3626;DHT22;1827;50.534;8.316;2023-06-14T16:08:11;23.20;99.90
3626;DHT22;1827;50.534;8.316;2023-06-14T16:10:36;23.30;99.90
3626;DHT22;1827;50.534;8.316;2023-06-14T16:13:02;23.10;99.90